sensor_id;sensor_type;location;lat;lon;timestamp;pressure;altitude;pressure_sealevel;temperature;humidity
35908;BME280;22003;50.320;8.054;2023-11-22T00:00:56;100459.53;;;3.05;100.00
35908;BME280;22003;50.320;8.054;2023-11-22T00:03:21;100449.25;;;3.00;100.00
35908;BME280;22003;50.320;8.054;2023-11-22T00:05:49;100452.66;;;3.02;100.00
35908;BME280;22003;50.320;8.054;2023-11-22T00:08:14;100445.72;;;3.01;100.00
35908;BME280;22003;50.320;8.054;2023-11-22T00:10:39;100452.66;;;3.02;100.00
35908;BME280;22003;50.320;8.054;2023-11-22T00:13:04;100449.44;;;2.94;100.00
35908;BME280;22003;50.320;8.054;2023-11-22T00:15:30;100449.16;;;2.78;100.00
35908;BME280;22003;50.320;8.054;2023-11-22T00:17:55;100441.66;;;2.68;100.00
35908;BME280;22003;50.320;8.054;2023-11-22T00:20:22;100467.63;;;2.74;100.00
35908;BME280;22003;50.320;8.054;2023-11-22T00:22:48;100464.09;;;2.75;100.00
35908;BME280;22003;50.320;8.054;2023-11-22T00:25:13;100458.16;;;2.70;100.00
35908;BME280;22003;50.320;8.054;2023-11-22T00:27:39;100470.38;;;2.69;100.00
35908;BME280;22003;50.320;8.054;2023-11-22T00:30:05;100467.72;;;2.71;100.00
35908;BME280;22003;50.320;8.054;2023-11-22T00:32:30;100439.50;;;2.29;100.00
35908;BME280;22003;50.320;8.054;2023-11-22T00:34:55;100434.63;;;2.43;100.00
35908;BME280;22003;50.320;8.054;2023-11-22T00:37:20;100401.91;;;2.31;100.00
35908;BME280;22003;50.320;8.054;2023-11-22T00:39:46;100477.97;;;2.77;100.00
35908;BME280;22003;50.320;8.054;2023-11-22T00:42:11;100475.34;;;2.77;100.00
35908;BME280;22003;50.320;8.054;2023-11-22T00:44:36;100480.66;;;2.75;100.00
35908;BME280;22003;50.320;8.054;2023-11-22T00:47:02;100482.34;;;2.76;100.00
35908;BME280;22003;50.320;8.054;2023-11-22T00:49:28;100421.56;;;2.43;100.00
35908;BME280;22003;50.320;8.054;2023-11-22T00:51:53;100483.97;;;2.80;100.00
35908;BME280;22003;50.320;8.054;2023-11-22T00:54:19;100444.81;;;2.52;100.00
35908;BME280;22003;50.320;8.054;2023-11-22T00:56:45;100484.16;;;2.74;100.00
35908;BME280;22003;50.320;8.054;2023-11-22T00:59:10;100495.13;;;2.85;100.00
35908;BME280;22003;50.320;8.054;2023-11-22T01:01:36;100489.03;;;2.85;100.00
35908;BME280;22003;50.320;8.054;2023-11-22T01:04:01;100486.69;;;3.02;100.00
35908;BME280;22003;50.320;8.054;2023-11-22T01:06:26;100490.22;;;3.01;100.00
35908;BME280;22003;50.320;8.054;2023-11-22T01:08:52;100489.00;;;3.11;100.00
35908;BME280;22003;50.320;8.054;2023-11-22T01:11:17;100495.50;;;3.25;100.00
35908;BME280;22003;50.320;8.054;2023-11-22T01:13:43;100464.13;;;2.98;100.00
35908;BME280;22003;50.320;8.054;2023-11-22T01:16:09;100481.75;;;2.95;100.00
35908;BME280;22003;50.320;8.054;2023-11-22T01:18:36;100477.38;;;2.94;100.00
35908;BME280;22003;50.320;8.054;2023-11-22T01:21:01;100440.97;;;2.87;100.00
35908;BME280;22003;50.320;8.054;2023-11-22T01:23:28;100498.56;;;3.12;100.00
35908;BME280;22003;50.320;8.054;2023-11-22T01:25:53;100503.72;;;3.39;100.00
35908;BME280;22003;50.320;8.054;2023-11-22T01:28:19;100504.38;;;3.44;100.00
35908;BME280;22003;50.320;8.054;2023-11-22T01:30:44;100505.06;;;3.26;100.00
35908;BME280;22003;50.320;8.054;2023-11-22T01:33:11;100514.28;;;3.11;100.00
35908;BME280;22003;50.320;8.054;2023-11-22T01:35:36;100526.72;;;3.06;100.00
35908;BME280;22003;50.320;8.054;2023-11-22T01:38:02;100530.34;;;3.02;100.00
35908;BME280;22003;50.320;8.054;2023-11-22T01:40:29;100530.13;;;3.08;100.00
35908;BME280;22003;50.320;8.054;2023-11-22T01:42:54;100421.28;;;2.26;100.00
35908;BME280;22003;50.320;8.054;2023-11-22T01:45:20;100526.16;;;2.96;100.00
35908;BME280;22003;50.320;8.054;2023-11-22T01:47:46;100521.13;;;3.15;100.00
35908;BME280;22003;50.320;8.054;2023-11-22T01:50:12;100464.09;;;2.75;100.00
35908;BME280;22003;50.320;8.054;2023-11-22T01:52:38;100535.72;;;2.97;100.00
35908;BME280;22003;50.320;8.054;2023-11-22T01:55:04;100528.66;;;2.99;100.00
35908;BME280;22003;50.320;8.054;2023-11-22T01:57:31;100538.25;;;3.00;100.00
35908;BME280;22003;50.320;8.054;2023-11-22T02:00:00;100527.97;;;2.94;100.00
35908;BME280;22003;50.320;8.054;2023-11-22T02:02:26;100539.03;;;3.02;100.00
35908;BME280;22003;50.320;8.054;2023-11-22T02:04:51;100536.78;;;2.91;100.00
35908;BME280;22003;50.320;8.054;2023-11-22T02:07:16;100546.47;;;2.89;100.00
35908;BME280;22003;50.320;8.054;2023-11-22T02:09:42;100554.31;;;2.89;100.00
35908;BME280;22003;50.320;8.054;2023-11-22T02:12:07;100548.25;;;2.87;100.00
35908;BME280;22003;50.320;8.054;2023-11-22T02:14:33;100551.69;;;2.89;100.00
35908;BME280;22003;50.320;8.054;2023-11-22T02:16:59;100548.22;;;2.89;100.00
35908;BME280;22003;50.320;8.054;2023-11-22T02:19:24;100550.72;;;2.92;100.00
35908;BME280;22003;50.320;8.054;2023-11-22T02:21:50;100556.09;;;2.89;100.00
35908;BME280;22003;50.320;8.054;2023-11-22T02:24:16;100561.25;;;2.90;100.00
35908;BME280;22003;50.320;8.054;2023-11-22T02:26:45;100557.03;;;2.86;100.00
35908;BME280;22003;50.320;8.054;2023-11-22T02:29:11;100544.72;;;2.88;100.00
35908;BME280;22003;50.320;8.054;2023-11-22T02:31:38;100547.75;;;3.03;100.00
35908;BME280;22003;50.320;8.054;2023-11-22T02:34:04;100547.69;;;3.04;100.00
35908;BME280;22003;50.320;8.054;2023-11-22T02:36:29;100499.72;;;2.79;100.00
35908;BME280;22003;50.320;8.054;2023-11-22T02:38:56;100540.00;;;3.00;100.00
35908;BME280;22003;50.320;8.054;2023-11-22T02:41:21;100541.53;;;3.05;100.00
35908;BME280;22003;50.320;8.054;2023-11-22T02:43:47;100568.53;;;3.07;100.00
35908;BME280;22003;50.320;8.054;2023-11-22T02:46:12;100518.31;;;2.96;100.00
35908;BME280;22003;50.320;8.054;2023-11-22T02:48:37;100539.53;;;3.13;100.00
35908;BME280;22003;50.320;8.054;2023-11-22T02:51:03;100541.34;;;3.11;100.00
35908;BME280;22003;50.320;8.054;2023-11-22T02:53:28;100550.09;;;3.10;100.00
35908;BME280;22003;50.320;8.054;2023-11-22T02:55:55;100548.53;;;3.05;100.00
35908;BME280;22003;50.320;8.054;2023-11-22T02:58:21;100565.22;;;3.02;100.00
35908;BME280;22003;50.320;8.054;2023-11-22T03:00:46;100561.97;;;2.96;100.00
35908;BME280;22003;50.320;8.054;2023-11-22T03:03:12;100588.41;;;3.13;100.00
35908;BME280;22003;50.320;8.054;2023-11-22T03:05:37;100594.88;;;3.03;100.00
35908;BME280;22003;50.320;8.054;2023-11-22T03:08:03;100546.22;;;2.71;100.00
35908;BME280;22003;50.320;8.054;2023-11-22T03:10:29;100578.56;;;2.95;100.00
35908;BME280;22003;50.320;8.054;2023-11-22T03:12:55;100586.47;;;2.93;100.00
35908;BME280;22003;50.320;8.054;2023-11-22T03:15:21;100590.41;;;2.80;100.00
35908;BME280;22003;50.320;8.054;2023-11-22T03:17:46;100588.25;;;2.64;100.00
35908;BME280;22003;50.320;8.054;2023-11-22T03:20:13;100511.75;;;2.03;100.00
35908;BME280;22003;50.320;8.054;2023-11-22T03:22:40;100590.66;;;2.44;100.00
35908;BME280;22003;50.320;8.054;2023-11-22T03:25:09;100545.34;;;2.16;100.00
35908;BME280;22003;50.320;8.054;2023-11-22T03:27:35;100579.72;;;2.31;100.00
35908;BME280;22003;50.320;8.054;2023-11-22T03:30:01;100581.91;;;2.17;100.00
35908;BME280;22003;50.320;8.054;2023-11-22T03:32:26;100594.03;;;2.20;100.00
35908;BME280;22003;50.320;8.054;2023-11-22T03:34:51;100597.53;;;2.19;100.00
35908;BME280;22003;50.320;8.054;2023-11-22T03:37:17;100598.91;;;2.02;100.00
35908;BME280;22003;50.320;8.054;2023-11-22T03:39:43;100559.78;;;1.70;100.00
35908;BME280;22003;50.320;8.054;2023-11-22T03:42:16;100610.28;;;2.00;100.00
35908;BME280;22003;50.320;8.054;2023-11-22T03:44:42;100620.97;;;2.22;100.00
35908;BME280;22003;50.320;8.054;2023-11-22T03:47:07;100629.22;;;2.08;100.00
35908;BME280;22003;50.320;8.054;2023-11-22T03:49:32;100623.03;;;2.12;100.00
35908;BME280;22003;50.320;8.054;2023-11-22T03:51:58;100634.75;;;1.97;100.00
35908;BME280;22003;50.320;8.054;2023-11-22T03:54:23;100633.47;;;1.81;100.00
35908;BME280;22003;50.320;8.054;2023-11-22T03:56:49;100644.91;;;1.77;100.00
35908;BME280;22003;50.320;8.054;2023-11-22T03:59:14;100625.09;;;1.70;100.00
35908;BME280;22003;50.320;8.054;2023-11-22T04:01:39;100646.50;;;1.82;100.00
35908;BME280;22003;50.320;8.054;2023-11-22T04:04:04;100645.94;;;1.71;100.00
35908;BME280;22003;50.320;8.054;2023-11-22T04:06:30;100641.81;;;1.63;100.00
35908;BME280;22003;50.320;8.054;2023-11-22T04:08:58;100651.59;;;1.56;100.00
35908;BME280;22003;50.320;8.054;2023-11-22T04:11:24;100661.28;;;1.51;100.00
35908;BME280;22003;50.320;8.054;2023-11-22T04:13:49;100659.22;;;1.64;100.00
35908;BME280;22003;50.320;8.054;2023-11-22T04:16:14;100650.00;;;1.49;100.00
35908;BME280;22003;50.320;8.054;2023-11-22T04:18:40;100668.41;;;1.44;100.00
35908;BME280;22003;50.320;8.054;2023-11-22T04:21:06;100668.81;;;1.29;100.00
35908;BME280;22003;50.320;8.054;2023-11-22T04:23:32;100687.09;;;1.29;100.00
35908;BME280;22003;50.320;8.054;2023-11-22T04:25:58;100678.38;;;1.30;100.00
35908;BME280;22003;50.320;8.054;2023-11-22T04:28:24;100675.06;;;1.22;100.00
35908;BME280;22003;50.320;8.054;2023-11-22T04:30:50;100681.28;;;1.18;100.00
35908;BME280;22003;50.320;8.054;2023-11-22T04:33:16;100695.25;;;1.15;100.00
35908;BME280;22003;50.320;8.054;2023-11-22T04:35:42;100661.13;;;0.87;100.00
35908;BME280;22003;50.320;8.054;2023-11-22T04:38:07;100661.31;;;0.79;100.00
35908;BME280;22003;50.320;8.054;2023-11-22T04:40:33;100702.53;;;1.02;100.00
35908;BME280;22003;50.320;8.054;2023-11-22T04:42:59;100708.66;;;1.00;100.00
35908;BME280;22003;50.320;8.054;2023-11-22T04:45:24;100681.50;;;0.71;100.00
35908;BME280;22003;50.320;8.054;2023-11-22T04:47:49;100704.72;;;0.82;100.00
35908;BME280;22003;50.320;8.054;2023-11-22T04:50:14;100717.91;;;0.76;100.00
35908;BME280;22003;50.320;8.054;2023-11-22T04:52:40;100722.84;;;0.88;100.00
35908;BME280;22003;50.320;8.054;2023-11-22T04:55:05;100725.19;;;1.00;100.00
35908;BME280;22003;50.320;8.054;2023-11-22T04:57:30;100727.81;;;1.00;100.00
35908;BME280;22003;50.320;8.054;2023-11-22T04:59:56;100646.16;;;0.58;100.00
35908;BME280;22003;50.320;8.054;2023-11-22T05:02:21;100663.38;;;0.67;100.00
35908;BME280;22003;50.320;8.054;2023-11-22T05:04:47;100716.44;;;1.03;100.00
35908;BME280;22003;50.320;8.054;2023-11-22T05:07:14;100695.03;;;0.87;100.00
35908;BME280;22003;50.320;8.054;2023-11-22T05:09:40;100730.50;;;0.96;100.00
35908;BME280;22003;50.320;8.054;2023-11-22T05:12:06;100738.09;;;1.07;100.00
35908;BME280;22003;50.320;8.054;2023-11-22T05:14:31;100728.81;;;0.93;100.00
35908;BME280;22003;50.320;8.054;2023-11-22T05:16:56;100735.88;;;0.88;100.00
35908;BME280;22003;50.320;8.054;2023-11-22T05:19:22;100732.38;;;0.91;100.00
35908;BME280;22003;50.320;8.054;2023-11-22T05:21:47;100718.22;;;0.99;100.00
35908;BME280;22003;50.320;8.054;2023-11-22T05:24:13;100676.31;;;0.70;100.00
35908;BME280;22003;50.320;8.054;2023-11-22T05:26:40;100722.44;;;1.07;100.00
35908;BME280;22003;50.320;8.054;2023-11-22T05:29:06;100724.44;;;0.95;100.00
35908;BME280;22003;50.320;8.054;2023-11-22T05:31:31;100731.06;;;1.09;100.00
35908;BME280;22003;50.320;8.054;2023-11-22T05:33:56;100716.63;;;0.95;100.00
35908;BME280;22003;50.320;8.054;2023-11-22T05:36:21;100683.94;;;0.79;99.86
35908;BME280;22003;50.320;8.054;2023-11-22T05:38:47;100675.38;;;0.74;98.95
35908;BME280;22003;50.320;8.054;2023-11-22T05:41:12;100724.75;;;1.19;98.45
35908;BME280;22003;50.320;8.054;2023-11-22T05:43:37;100737.84;;;1.17;97.48
35908;BME280;22003;50.320;8.054;2023-11-22T05:46:04;100730.63;;;1.27;96.64
35908;BME280;22003;50.320;8.054;2023-11-22T05:48:29;100741.75;;;1.35;94.86
35908;BME280;22003;50.320;8.054;2023-11-22T05:50:55;100740.22;;;1.28;95.31
35908;BME280;22003;50.320;8.054;2023-11-22T05:53:20;100747.03;;;0.96;95.18
35908;BME280;22003;50.320;8.054;2023-11-22T05:55:47;100753.91;;;1.00;95.33
35908;BME280;22003;50.320;8.054;2023-11-22T05:58:15;100751.72;;;0.81;95.79
35908;BME280;22003;50.320;8.054;2023-11-22T06:00:42;100765.97;;;1.04;94.81
35908;BME280;22003;50.320;8.054;2023-11-22T06:03:08;100766.47;;;0.82;95.30
35908;BME280;22003;50.320;8.054;2023-11-22T06:05:33;100776.69;;;0.92;94.80
35908;BME280;22003;50.320;8.054;2023-11-22T06:07:58;100784.44;;;0.95;94.14
35908;BME280;22003;50.320;8.054;2023-11-22T06:10:24;100760.66;;;0.69;93.71
35908;BME280;22003;50.320;8.054;2023-11-22T06:12:49;100777.84;;;0.79;93.65
35908;BME280;22003;50.320;8.054;2023-11-22T06:15:15;100760.47;;;0.78;93.43
35908;BME280;22003;50.320;8.054;2023-11-22T06:17:40;100771.56;;;0.88;93.18
35908;BME280;22003;50.320;8.054;2023-11-22T06:20:06;100785.31;;;0.96;92.75
35908;BME280;22003;50.320;8.054;2023-11-22T06:22:31;100751.03;;;0.31;92.44
35908;BME280;22003;50.320;8.054;2023-11-22T06:24:57;100797.88;;;0.35;93.26
35908;BME280;22003;50.320;8.054;2023-11-22T06:27:22;100791.63;;;0.42;93.40
35908;BME280;22003;50.320;8.054;2023-11-22T06:29:48;100816.72;;;0.48;93.34
35908;BME280;22003;50.320;8.054;2023-11-22T06:32:13;100809.50;;;0.61;93.04
35908;BME280;22003;50.320;8.054;2023-11-22T06:34:39;100819.41;;;0.43;92.67
35908;BME280;22003;50.320;8.054;2023-11-22T06:37:04;100818.03;;;0.25;93.70
35908;BME280;22003;50.320;8.054;2023-11-22T06:39:29;100798.38;;;0.08;94.02
35908;BME280;22003;50.320;8.054;2023-11-22T06:41:54;100817.69;;;-0.06;95.21
35908;BME280;22003;50.320;8.054;2023-11-22T06:44:20;100814.16;;;0.00;96.73
35908;BME280;22003;50.320;8.054;2023-11-22T06:46:45;100771.31;;;-0.33;97.89
35908;BME280;22003;50.320;8.054;2023-11-22T06:49:11;100821.34;;;-0.14;98.79
35908;BME280;22003;50.320;8.054;2023-11-22T06:51:36;100832.06;;;-0.34;98.85
35908;BME280;22003;50.320;8.054;2023-11-22T06:54:02;100840.88;;;-0.41;99.82
35908;BME280;22003;50.320;8.054;2023-11-22T06:56:27;100855.69;;;-0.46;100.00
35908;BME280;22003;50.320;8.054;2023-11-22T06:58:52;100848.06;;;-0.59;100.00
35908;BME280;22003;50.320;8.054;2023-11-22T07:01:18;100854.91;;;-0.51;100.00
35908;BME280;22003;50.320;8.054;2023-11-22T07:03:43;100863.53;;;-0.48;100.00
35908;BME280;22003;50.320;8.054;2023-11-22T07:06:08;100868.81;;;-0.52;100.00
35908;BME280;22003;50.320;8.054;2023-11-22T07:08:34;100865.34;;;-0.53;100.00
35908;BME280;22003;50.320;8.054;2023-11-22T07:11:00;100874.00;;;-0.52;100.00
35908;BME280;22003;50.320;8.054;2023-11-22T07:13:25;100827.53;;;-0.77;100.00
35908;BME280;22003;50.320;8.054;2023-11-22T07:15:52;100856.94;;;-0.15;100.00
35908;BME280;22003;50.320;8.054;2023-11-22T07:18:17;100872.69;;;-0.22;100.00
35908;BME280;22003;50.320;8.054;2023-11-22T07:20:42;100875.16;;;-0.13;100.00
35908;BME280;22003;50.320;8.054;2023-11-22T07:23:07;100874.63;;;-0.35;100.00
35908;BME280;22003;50.320;8.054;2023-11-22T07:25:38;100845.53;;;-0.63;100.00
35908;BME280;22003;50.320;8.054;2023-11-22T07:28:03;100872.31;;;-0.57;100.00
35908;BME280;22003;50.320;8.054;2023-11-22T07:30:29;100868.03;;;-0.59;100.00
35908;BME280;22003;50.320;8.054;2023-11-22T07:32:55;100879.09;;;-0.43;100.00
35908;BME280;22003;50.320;8.054;2023-11-22T07:35:22;100871.19;;;-0.37;100.00
35908;BME280;22003;50.320;8.054;2023-11-22T07:37:47;100867.03;;;-0.50;100.00
35908;BME280;22003;50.320;8.054;2023-11-22T07:40:13;100786.25;;;-1.01;100.00
35908;BME280;22003;50.320;8.054;2023-11-22T07:42:39;100867.19;;;-0.61;100.00
35908;BME280;22003;50.320;8.054;2023-11-22T07:45:05;100856.63;;;-0.50;100.00
35908;BME280;22003;50.320;8.054;2023-11-22T07:47:31;100866.00;;;-0.39;100.00
35908;BME280;22003;50.320;8.054;2023-11-22T07:49:56;100859.88;;;-0.36;100.00
35908;BME280;22003;50.320;8.054;2023-11-22T07:52:22;100843.34;;;-0.32;100.00
35908;BME280;22003;50.320;8.054;2023-11-22T07:54:48;100852.81;;;-0.28;100.00
35908;BME280;22003;50.320;8.054;2023-11-22T07:57:13;100850.72;;;-0.06;100.00
35908;BME280;22003;50.320;8.054;2023-11-22T07:59:39;100851.31;;;0.11;100.00
35908;BME280;22003;50.320;8.054;2023-11-22T08:02:05;100859.88;;;0.18;97.91
35908;BME280;22003;50.320;8.054;2023-11-22T08:04:36;100869.31;;;0.22;97.77
35908;BME280;22003;50.320;8.054;2023-11-22T08:07:01;100878.81;;;0.26;97.33
35908;BME280;22003;50.320;8.054;2023-11-22T08:09:26;100884.88;;;0.28;96.88
35908;BME280;22003;50.320;8.054;2023-11-22T08:11:56;100896.03;;;0.36;94.33
35908;BME280;22003;50.320;8.054;2023-11-22T08:14:21;100895.25;;;0.31;93.48
35908;BME280;22003;50.320;8.054;2023-11-22T08:16:46;100909.91;;;0.37;93.95
35908;BME280;22003;50.320;8.054;2023-11-22T08:19:12;100895.19;;;0.34;93.61
35908;BME280;22003;50.320;8.054;2023-11-22T08:21:37;100897.84;;;0.31;93.14
35908;BME280;22003;50.320;8.054;2023-11-22T08:24:04;100920.31;;;0.38;94.09
35908;BME280;22003;50.320;8.054;2023-11-22T08:26:29;100907.28;;;0.40;94.85
35908;BME280;22003;50.320;8.054;2023-11-22T08:28:54;100887.47;;;0.30;93.97
35908;BME280;22003;50.320;8.054;2023-11-22T08:31:20;100913.22;;;0.46;94.24
35908;BME280;22003;50.320;8.054;2023-11-22T08:33:45;100906.34;;;0.42;94.75
35908;BME280;22003;50.320;8.054;2023-11-22T08:36:11;100910.63;;;0.46;94.00
35908;BME280;22003;50.320;8.054;2023-11-22T08:38:36;100841.97;;;-0.02;92.33
35908;BME280;22003;50.320;8.054;2023-11-22T08:41:06;100913.16;;;0.49;93.12
35908;BME280;22003;50.320;8.054;2023-11-22T08:43:33;100871.00;;;0.26;92.87
35908;BME280;22003;50.320;8.054;2023-11-22T08:45:59;100909.50;;;0.60;93.00
35908;BME280;22003;50.320;8.054;2023-11-22T08:48:24;100926.81;;;0.64;92.91
35908;BME280;22003;50.320;8.054;2023-11-22T08:50:50;100924.81;;;0.78;93.11
35908;BME280;22003;50.320;8.054;2023-11-22T08:53:15;100892.53;;;0.82;93.23
35908;BME280;22003;50.320;8.054;2023-11-22T08:55:42;100907.09;;;0.94;91.31
35908;BME280;22003;50.320;8.054;2023-11-22T08:58:09;100903.63;;;0.93;90.86
35908;BME280;22003;50.320;8.054;2023-11-22T09:00:35;100889.16;;;0.78;90.12
35908;BME280;22003;50.320;8.054;2023-11-22T09:03:00;100908.63;;;1.04;92.07
35908;BME280;22003;50.320;8.054;2023-11-22T09:05:26;100854.78;;;0.58;92.32
35908;BME280;22003;50.320;8.054;2023-11-22T09:07:52;100909.13;;;0.79;91.92
35908;BME280;22003;50.320;8.054;2023-11-22T09:10:18;100912.22;;;0.98;90.38
35908;BME280;22003;50.320;8.054;2023-11-22T09:12:46;100910.22;;;0.66;90.37
35908;BME280;22003;50.320;8.054;2023-11-22T09:15:13;100922.63;;;1.01;91.02
35908;BME280;22003;50.320;8.054;2023-11-22T09:17:44;100922.75;;;0.95;91.28
35908;BME280;22003;50.320;8.054;2023-11-22T09:20:17;100914.16;;;0.89;90.71
35908;BME280;22003;50.320;8.054;2023-11-22T09:22:48;100919.91;;;1.06;90.71
35908;BME280;22003;50.320;8.054;2023-11-22T09:27:42;100914.22;;;1.27;89.60
35908;BME280;22003;50.320;8.054;2023-11-22T09:30:07;100919.09;;;1.44;87.78
35908;BME280;22003;50.320;8.054;2023-11-22T09:32:43;100918.84;;;1.56;86.56
35908;BME280;22003;50.320;8.054;2023-11-22T09:35:08;100938.56;;;1.70;85.21
35908;BME280;22003;50.320;8.054;2023-11-22T09:37:34;100938.16;;;1.48;84.36
35908;BME280;22003;50.320;8.054;2023-11-22T09:40:00;100957.41;;;1.44;86.62
35908;BME280;22003;50.320;8.054;2023-11-22T09:42:25;100953.16;;;1.40;84.31
35908;BME280;22003;50.320;8.054;2023-11-22T09:44:52;100944.28;;;1.47;82.37
35908;BME280;22003;50.320;8.054;2023-11-22T09:47:18;100986.44;;;1.30;83.78
35908;BME280;22003;50.320;8.054;2023-11-22T09:49:46;100994.84;;;1.43;86.11
35908;BME280;22003;50.320;8.054;2023-11-22T09:52:18;101006.81;;;1.54;86.98
35908;BME280;22003;50.320;8.054;2023-11-22T09:54:48;100992.28;;;1.41;87.38
35908;BME280;22003;50.320;8.054;2023-11-22T09:57:15;100981.28;;;1.25;85.91
35908;BME280;22003;50.320;8.054;2023-11-22T09:59:42;100935.13;;;0.84;85.72
35908;BME280;22003;50.320;8.054;2023-11-22T10:02:08;100973.88;;;1.05;86.19
35908;BME280;22003;50.320;8.054;2023-11-22T10:04:34;100972.06;;;1.08;85.94
35908;BME280;22003;50.320;8.054;2023-11-22T10:06:59;100974.72;;;1.04;84.98
35908;BME280;22003;50.320;8.054;2023-11-22T10:09:25;100949.13;;;0.80;83.76
35908;BME280;22003;50.320;8.054;2023-11-22T10:11:52;100965.38;;;0.93;84.07
35908;BME280;22003;50.320;8.054;2023-11-22T10:14:24;100966.44;;;0.83;83.01
35908;BME280;22003;50.320;8.054;2023-11-22T10:17:01;100962.03;;;0.86;81.65
35908;BME280;22003;50.320;8.054;2023-11-22T10:19:27;100962.09;;;0.83;82.60
35908;BME280;22003;50.320;8.054;2023-11-22T10:22:02;100981.94;;;0.92;83.15
35908;BME280;22003;50.320;8.054;2023-11-22T10:24:30;100982.75;;;0.95;82.74
35908;BME280;22003;50.320;8.054;2023-11-22T10:26:58;100930.97;;;0.74;82.00
35908;BME280;22003;50.320;8.054;2023-11-22T10:29:26;100972.13;;;1.04;81.73
35908;BME280;22003;50.320;8.054;2023-11-22T10:31:52;100969.56;;;1.03;82.47
35908;BME280;22003;50.320;8.054;2023-11-22T10:34:21;100922.22;;;0.78;82.75
35908;BME280;22003;50.320;8.054;2023-11-22T10:36:47;100963.22;;;1.15;83.71
35908;BME280;22003;50.320;8.054;2023-11-22T10:39:18;100958.47;;;1.35;84.47
35908;BME280;22003;50.320;8.054;2023-11-22T10:41:45;100966.84;;;1.49;82.99
35908;BME280;22003;50.320;8.054;2023-11-22T10:44:10;100968.66;;;1.47;81.38
35908;BME280;22003;50.320;8.054;2023-11-22T10:46:38;100968.25;;;1.67;80.84
35908;BME280;22003;50.320;8.054;2023-11-22T10:49:04;100974.91;;;1.80;80.70
35908;BME280;22003;50.320;8.054;2023-11-22T10:51:31;100951.63;;;1.70;80.07
35908;BME280;22003;50.320;8.054;2023-11-22T10:53:57;100975.63;;;1.87;79.39
35908;BME280;22003;50.320;8.054;2023-11-22T10:56:23;100980.56;;;1.99;78.69
35908;BME280;22003;50.320;8.054;2023-11-22T10:58:50;100969.69;;;2.18;78.58
35908;BME280;22003;50.320;8.054;2023-11-22T11:01:19;100973.31;;;2.10;78.51
35908;BME280;22003;50.320;8.054;2023-11-22T11:06:23;100958.69;;;2.03;76.95
35908;BME280;22003;50.320;8.054;2023-11-22T11:08:54;100977.69;;;2.11;77.14
35908;BME280;22003;50.320;8.054;2023-11-22T11:11:21;100873.53;;;1.57;77.35
35908;BME280;22003;50.320;8.054;2023-11-22T11:13:47;100973.78;;;2.63;74.98
35908;BME280;22003;50.320;8.054;2023-11-22T11:16:14;100980.66;;;2.66;76.32
35908;BME280;22003;50.320;8.054;2023-11-22T11:18:41;100978.16;;;3.27;72.73
35908;BME280;22003;50.320;8.054;2023-11-22T11:21:08;100980.94;;;3.81;73.24
35908;BME280;22003;50.320;8.054;2023-11-22T11:23:38;100996.50;;;2.94;73.09
35908;BME280;22003;50.320;8.054;2023-11-22T11:26:16;100992.03;;;2.31;74.18
35908;BME280;22003;50.320;8.054;2023-11-22T11:28:45;100998.06;;;2.33;75.40
35908;BME280;22003;50.320;8.054;2023-11-22T11:31:12;100936.34;;;1.90;76.66
35908;BME280;22003;50.320;8.054;2023-11-22T11:38:47;100924.97;;;3.25;70.38
35908;BME280;22003;50.320;8.054;2023-11-22T11:41:14;100808.72;;;2.71;71.27
35908;BME280;22003;50.320;8.054;2023-11-22T11:43:44;100975.94;;;3.74;71.33
35908;BME280;22003;50.320;8.054;2023-11-22T11:46:16;100975.69;;;3.22;70.92
35908;BME280;22003;50.320;8.054;2023-11-22T11:48:51;100967.41;;;3.65;69.48
35908;BME280;22003;50.320;8.054;2023-11-22T11:51:25;100942.50;;;4.08;68.52
35908;BME280;22003;50.320;8.054;2023-11-22T11:53:51;100951.09;;;3.85;70.91
35908;BME280;22003;50.320;8.054;2023-11-22T11:56:17;100961.59;;;3.85;70.88
35908;BME280;22003;50.320;8.054;2023-11-22T11:58:43;100968.31;;;3.04;71.48
35908;BME280;22003;50.320;8.054;2023-11-22T12:01:09;100958.22;;;2.57;73.37
35908;BME280;22003;50.320;8.054;2023-11-22T12:03:36;100957.19;;;3.27;73.26
35908;BME280;22003;50.320;8.054;2023-11-22T12:06:02;100944.16;;;3.55;71.70
35908;BME280;22003;50.320;8.054;2023-11-22T12:08:27;100941.31;;;3.62;72.01
35908;BME280;22003;50.320;8.054;2023-11-22T12:10:56;100913.09;;;3.13;71.27
35908;BME280;22003;50.320;8.054;2023-11-22T12:13:24;100926.31;;;3.08;71.03
35908;BME280;22003;50.320;8.054;2023-11-22T12:15:52;100917.59;;;2.77;71.69
35908;BME280;22003;50.320;8.054;2023-11-22T12:18:22;100929.88;;;2.75;72.60
35908;BME280;22003;50.320;8.054;2023-11-22T12:20:58;100938.44;;;2.80;74.28
35908;BME280;22003;50.320;8.054;2023-11-22T12:23:25;100948.19;;;3.37;72.97
35908;BME280;22003;50.320;8.054;2023-11-22T12:26:00;100938.31;;;3.17;73.43
35908;BME280;22003;50.320;8.054;2023-11-22T12:28:27;100942.16;;;3.04;73.44
35908;BME280;22003;50.320;8.054;2023-11-22T12:30:52;100939.16;;;3.17;71.44
35908;BME280;22003;50.320;8.054;2023-11-22T12:33:18;100935.13;;;3.65;69.40
35908;BME280;22003;50.320;8.054;2023-11-22T12:35:44;100922.13;;;3.90;69.29
35908;BME280;22003;50.320;8.054;2023-11-22T12:38:10;100932.56;;;3.91;67.87
35908;BME280;22003;50.320;8.054;2023-11-22T12:40:36;100941.41;;;3.30;69.22
35908;BME280;22003;50.320;8.054;2023-11-22T12:43:02;100951.44;;;2.83;72.60
35908;BME280;22003;50.320;8.054;2023-11-22T12:45:30;100945.66;;;3.34;70.88
35908;BME280;22003;50.320;8.054;2023-11-22T12:47:56;100937.50;;;3.44;71.38
35908;BME280;22003;50.320;8.054;2023-11-22T12:50:31;100903.84;;;3.01;71.55
35908;BME280;22003;50.320;8.054;2023-11-22T12:53:06;100938.44;;;3.42;70.27
35908;BME280;22003;50.320;8.054;2023-11-22T12:55:32;100925.69;;;3.59;68.74
35908;BME280;22003;50.320;8.054;2023-11-22T12:57:58;100916.13;;;3.29;70.15